Time;durP1;ratioP1;P1;durP2;ratioP2;P2;SDS_P1;SDS_P2;PMS_P1;PMS_P2;Temp;Humidity;BMP_temperature;BMP_pressure;BME280_temperature;BME280_humidity;BME280_pressure;Samples;Min_cycle;Max_cycle;Signal;HPM_P1;HPM_P2
2024/02/15 00:00:16;;;;;;;3.50;1.85;;;8.60;56.70;;;3.93;95.45;96009.59;4946531;28;20026;-51
2024/02/15 00:02:46;;;;;;;3.20;1.88;;;8.60;56.80;;;3.92;95.71;96007.97;4939050;28;20414;-51
2024/02/15 00:05:14;;;;;;;3.85;1.70;;;8.60;56.90;;;3.85;95.87;96004.53;4942249;28;20392;-52
2024/02/15 00:07:40;;;;;;;2.47;2.10;;;8.60;57.00;;;3.91;95.35;96008.16;4938690;28;20031;-51
2024/02/15 00:10:08;;;;;;;2.22;1.50;;;8.60;57.00;;;3.92;95.29;96007.16;4943098;28;20393;-51
2024/02/15 00:12:35;;;;;;;4.85;1.73;;;8.60;57.00;;;3.90;95.16;96017.09;4941238;28;20105;-50
2024/02/15 00:15:01;;;;;;;3.08;1.83;;;8.60;57.10;;;3.89;94.57;96013.66;4940773;28;20367;-50
2024/02/15 00:17:30;;;;;;;3.33;1.60;;;8.50;57.10;;;3.85;95.00;96009.81;4940928;28;20023;-54
2024/02/15 00:19:56;;;;;;;2.88;1.77;;;8.50;57.10;;;3.85;94.49;96004.53;4939045;28;20031;-53
2024/02/15 00:22:22;;;;;;;4.80;2.13;;;8.50;57.10;;;3.83;94.96;96005.81;4941588;28;20473;-51
2024/02/15 00:24:51;;;;;;;2.80;1.90;;;8.50;57.20;;;3.79;95.84;96007.22;4935924;28;20023;-52
2024/02/15 00:27:17;;;;;;;3.78;1.75;;;8.50;57.20;;;3.71;95.70;96013.56;4944430;28;20579;-51
2024/02/15 00:29:43;;;;;;;2.80;1.55;;;8.40;57.20;;;3.62;96.55;96013.00;4940984;28;20119;-51
2024/02/15 00:32:10;;;;;;;2.08;1.58;;;8.40;57.20;;;3.61;97.09;96013.22;4937758;28;20042;-53
2024/02/15 00:34:40;;;;;;;2.75;1.80;;;8.30;57.30;;;3.59;97.12;96012.59;4936587;28;20038;-51
2024/02/15 00:37:06;;;;;;;2.60;1.75;;;8.30;57.40;;;3.53;97.56;96010.81;4939513;28;20089;-52
2024/02/15 00:39:32;;;;;;;2.05;1.50;;;8.30;57.50;;;3.48;97.31;96020.16;4941763;28;20034;-51
2024/02/15 00:42:00;;;;;;;4.03;1.80;;;8.20;57.50;;;3.44;97.18;96013.66;4940473;28;20019;-56
2024/02/15 00:44:27;;;;;;;3.38;1.48;;;8.20;57.50;;;3.39;98.04;96012.69;4942693;28;20022;-53
2024/02/15 00:46:53;;;;;;;4.15;1.70;;;8.20;57.70;;;3.32;98.67;96017.16;4937048;28;20110;-55
2024/02/15 00:49:22;;;;;;;2.10;1.50;;;8.10;57.70;;;3.31;98.87;96011.09;4940687;28;20023;-53
2024/02/15 00:51:48;;;;;;;3.78;2.00;;;8.10;57.70;;;3.27;99.26;96017.78;4940607;28;20127;-51
2024/02/15 00:54:16;;;;;;;3.75;1.60;;;8.10;57.80;;;3.17;99.91;96006.91;4939939;28;20022;-51
2024/02/15 00:56:41;;;;;;;2.55;1.50;;;8.00;57.80;;;3.12;100.00;96004.88;4942445;28;20027;-52
2024/02/15 00:59:07;;;;;;;3.13;1.50;;;8.00;57.80;;;3.09;100.00;96007.13;4937515;28;20040;-54
2024/02/15 01:01:33;;;;;;;3.78;2.00;;;7.90;57.90;;;3.12;100.00;96010.13;4941542;28;20030;-54
2024/02/15 01:03:59;;;;;;;3.75;1.80;;;7.90;58.00;;;3.16;100.00;96008.69;4938082;28;20026;-54
2024/02/15 01:06:25;;;;;;;2.17;1.80;;;7.90;58.10;;;3.08;100.00;96008.13;4943458;28;20106;-52
2024/02/15 01:08:51;;;;;;;2.60;1.75;;;7.80;58.70;;;3.02;100.00;96009.78;4939961;28;20050;-54
2024/02/15 01:11:17;;;;;;;1.88;1.50;;;7.80;58.20;;;3.00;100.00;96004.69;4942215;28;20535;-57
2024/02/15 01:13:44;;;;;;;3.63;1.73;;;7.80;58.20;;;2.96;100.00;96002.69;4943666;28;20042;-53
2024/02/15 01:16:10;;;;;;;5.90;1.70;;;7.70;58.30;;;2.91;100.00;96011.19;4934786;28;20027;-51
2024/02/15 01:18:36;;;;;;;2.40;1.60;;;7.70;58.40;;;2.90;100.00;96014.84;4944810;28;20029;-53
2024/02/15 01:21:03;;;;;;;2.75;1.60;;;7.70;58.50;;;2.92;100.00;96010.19;4939717;28;20074;-53
2024/02/15 01:23:28;;;;;;;2.53;1.80;;;7.70;58.60;;;2.87;100.00;96010.00;4935338;28;20126;-51
2024/02/15 01:25:54;;;;;;;2.97;1.50;;;7.60;58.60;;;2.80;100.00;96014.47;4934645;29;20530;-55
2024/02/15 01:28:21;;;;;;;2.83;1.60;;;7.60;58.60;;;2.74;100.00;96008.19;4934431;29;20346;-53
2024/02/15 01:30:47;;;;;;;3.03;1.90;;;7.60;58.80;;;2.68;100.00;96011.66;4934587;29;20553;-55
2024/02/15 01:33:13;;;;;;;1.90;1.45;;;7.50;58.80;;;2.71;100.00;96007.81;4934331;29;20038;-54
2024/02/15 01:35:39;;;;;;;2.42;1.60;;;7.50;58.90;;;2.68;100.00;96013.47;4934602;29;20135;-53
2024/02/15 01:38:05;;;;;;;2.78;2.03;;;7.50;58.90;;;2.68;100.00;96008.22;4935301;28;20109;-54
2024/02/15 01:40:32;;;;;;;2.90;1.70;;;7.50;59.00;;;2.65;100.00;96008.63;4934043;28;20019;-56
2024/02/15 01:42:58;;;;;;;2.00;1.50;;;7.40;59.10;;;2.62;100.00;96009.84;4934779;29;20394;-53
2024/02/15 01:45:25;;;;;;;3.67;1.70;;;7.40;59.20;;;2.60;100.00;96009.25;4934057;29;20038;-54
2024/02/15 01:47:53;;;;;;;2.13;1.60;;;7.40;59.30;;;2.59;100.00;96012.88;4937042;28;20050;-55
2024/02/15 01:50:21;;;;;;;4.03;1.92;;;7.40;59.40;;;2.62;100.00;96009.03;4934642;29;20478;-54
2024/02/15 01:52:52;;;;;;;2.90;1.50;;;7.30;59.40;;;2.54;100.00;96000.34;4937144;28;20081;-52
2024/02/15 01:55:19;;;;;;;2.90;1.73;;;7.30;59.50;;;2.52;100.00;96004.19;4933606;29;20023;-54
2024/02/15 01:57:45;;;;;;;3.50;1.75;;;7.30;59.50;;;2.49;100.00;95996.69;4933900;29;20034;-53
2024/02/15 02:00:13;;;;;;;3.85;1.52;;;7.30;59.60;;;2.53;100.00;95995.28;4934750;29;20031;-52
2024/02/15 02:02:44;;;;;;;4.35;1.70;;;7.30;59.60;;;2.57;100.00;96003.56;4933832;29;20110;-51
2024/02/15 02:05:10;;;;;;;2.10;1.77;;;7.30;59.80;;;2.60;100.00;95992.63;4934365;29;20552;-51
2024/02/15 02:07:37;;;;;;;2.25;1.45;;;7.30;59.80;;;2.52;100.00;95991.84;4934501;28;20122;-55
2024/02/15 02:10:05;;;;;;;2.47;1.50;;;7.30;59.80;;;2.50;100.00;95995.69;4933962;28;20544;-53
2024/02/15 02:12:32;;;;;;;4.80;1.70;;;7.30;59.90;;;2.50;100.00;95993.03;4932949;29;20041;-51
2024/02/15 02:14:58;;;;;;;2.97;1.77;;;7.30;59.90;;;2.45;100.00;95993.66;4931284;28;20047;-53
2024/02/15 02:17:24;;;;;;;2.38;1.80;;;7.20;59.90;;;2.47;100.00;95985.56;4934030;29;20031;-52
2024/02/15 02:19:50;;;;;;;3.35;1.58;;;7.20;59.90;;;2.43;100.00;95979.09;4934052;29;20097;-51
2024/02/15 02:22:18;;;;;;;2.78;1.70;;;7.20;60.00;;;2.44;100.00;95978.09;4933110;29;20054;-51
2024/02/15 02:25:08;;;;;;;2.00;1.50;;;7.20;60.00;;;2.37;100.00;95969.41;4938771;28;20506;-51
2024/02/15 02:27:38;;;;;;;2.25;1.48;;;7.20;60.20;;;2.36;100.00;95971.22;4932992;29;20442;-53
2024/02/15 02:30:14;;;;;;;2.80;1.67;;;7.20;60.10;;;2.34;100.00;95967.16;4934063;29;20031;-56
2024/02/15 02:32:41;;;;;;;2.85;1.60;;;7.10;60.80;;;2.32;100.00;95970.03;4931936;29;20031;-56
2024/02/15 02:35:11;;;;;;;5.30;1.67;;;7.10;60.10;;;2.36;100.00;95963.34;4933751;23;20323;-57
2024/02/15 02:37:41;;;;;;;5.00;1.65;;;7.10;60.30;;;2.35;100.00;95960.91;4922987;28;20494;-54
2024/02/15 02:40:09;;;;;;;3.90;1.55;;;7.10;60.30;;;2.33;100.00;95966.38;4912588;29;20975;-55
2024/02/15 02:42:58;;;;;;;4.80;1.60;;;7.10;60.30;;;2.37;100.00;95966.78;4913248;29;20059;-54
2024/02/15 02:45:25;;;;;;;1.85;1.45;;;7.10;60.60;;;2.43;100.00;95965.94;4928159;29;20454;-56
2024/02/15 02:47:53;;;;;;;2.63;1.70;;;7.20;60.60;;;2.45;100.00;95962.13;4932780;28;20397;-55
2024/02/15 02:50:22;;;;;;;2.47;1.40;;;7.20;60.70;;;2.46;100.00;95962.91;4932908;29;20023;-56
2024/02/15 02:52:48;;;;;;;2.35;1.45;;;7.20;60.60;;;2.42;100.00;95964.34;4933122;28;20026;-57
2024/02/15 02:55:15;;;;;;;2.35;1.42;;;7.10;60.60;;;2.44;100.00;95963.09;4932500;29;20389;-57
2024/02/15 02:57:44;;;;;;;3.60;1.45;;;7.20;60.70;;;2.40;100.00;95947.97;4930430;29;20058;-55
2024/02/15 03:00:16;;;;;;;1.95;1.27;;;7.20;60.70;;;2.40;100.00;95954.00;4931446;29;20019;-57
2024/02/15 03:02:45;;;;;;;1.80;1.40;;;7.10;60.70;;;2.44;100.00;95949.16;4928278;29;20439;-54
2024/02/15 03:05:12;;;;;;;2.67;1.30;;;7.20;61.60;;;2.45;100.00;95950.78;4932016;29;20527;-56
2024/02/15 03:07:42;;;;;;;3.45;1.40;;;7.20;60.80;;;2.41;100.00;95958.25;4933366;28;20374;-57
2024/02/15 03:10:13;;;;;;;3.30;1.60;;;7.20;60.80;;;2.44;100.00;95949.97;4931585;29;20030;-57
2024/02/15 03:12:43;;;;;;;3.00;1.70;;;7.20;60.80;;;2.38;100.00;95953.41;4932415;29;20027;-53
2024/02/15 03:15:11;;;;;;;2.05;1.30;;;7.10;60.70;;;2.38;100.00;95955.22;4930927;29;20760;-56
2024/02/15 03:17:42;;;;;;;3.22;1.35;;;7.10;60.70;;;2.36;100.00;95952.81;4932931;29;20027;-53
2024/02/15 03:20:20;;;;;;;2.17;1.60;;;7.10;60.70;;;2.34;100.00;95944.31;4940068;28;20030;-54
2024/02/15 03:22:57;;;;;;;2.63;1.65;;;7.10;60.80;;;2.28;100.00;95945.13;4931464;29;20054;-57
2024/02/15 03:25:26;;;;;;;2.35;1.40;;;7.10;61.00;;;2.30;100.00;95938.66;4932056;29;20382;-56
2024/02/15 03:27:58;;;;;;;1.88;1.30;;;7.00;60.90;;;2.30;100.00;95946.53;4931234;29;20150;-55
2024/02/15 03:30:26;;;;;;;2.07;1.20;;;7.00;61.00;;;2.31;100.00;95937.63;4932345;29;20109;-55
2024/02/15 03:32:53;;;;;;;2.78;1.60;;;7.10;61.10;;;2.33;100.00;95942.72;4930940;29;20482;-53
2024/02/15 03:35:22;;;;;;;5.80;1.80;;;7.00;61.00;;;2.25;100.00;95940.28;4931207;29;20498;-52
2024/02/15 03:37:52;;;;;;;3.47;1.30;;;7.00;61.00;;;2.23;100.00;95943.13;4932092;28;20110;-57
2024/02/15 03:40:21;;;;;;;2.10;1.30;;;7.00;61.00;;;2.16;100.00;95944.13;4931070;29;20034;-54
2024/02/15 03:42:47;;;;;;;3.75;1.35;;;7.00;61.00;;;2.12;100.00;95942.91;4931927;29;20637;-56
2024/02/15 03:45:13;;;;;;;5.85;1.25;;;6.90;61.00;;;2.11;100.00;95949.19;4934157;28;20027;-52
2024/02/15 03:47:39;;;;;;;2.30;1.42;;;6.90;61.00;;;2.05;100.00;95940.28;4932082;29;20394;-57
2024/02/15 03:50:11;;;;;;;2.42;1.45;;;6.90;61.10;;;1.98;100.00;95939.50;4931129;29;20026;-55
2024/02/15 03:52:38;;;;;;;2.60;1.70;;;6.90;61.10;;;1.96;100.00;95938.88;4930614;28;20107;-55
2024/02/15 03:55:07;;;;;;;1.88;1.20;;;6.90;61.10;;;1.92;100.00;95943.72;4931502;29;20550;-57
2024/02/15 03:57:33;;;;;;;1.95;1.27;;;6.80;61.10;;;1.94;100.00;95938.25;4931925;29;20078;-53
2024/02/15 04:00:00;;;;;;;1.92;1.45;;;6.80;61.20;;;1.91;100.00;95933.41;4930733;29;20069;-58
2024/02/15 04:02:28;;;;;;;3.85;1.35;;;6.80;61.20;;;1.90;100.00;95931.78;4932031;29;20051;-58
2024/02/15 04:04:54;;;;;;;2.22;1.48;;;6.70;61.20;;;1.83;100.00;95937.84;4930577;29;20620;-55
2024/02/15 04:07:24;;;;;;;3.38;1.42;;;6.70;61.20;;;1.77;100.00;95933.41;4931781;29;20114;-54
2024/02/15 04:09:50;;;;;;;2.08;1.30;;;6.60;61.30;;;1.76;100.00;95944.13;4930499;29;20055;-55
2024/02/15 04:12:16;;;;;;;3.42;1.50;;;6.60;61.40;;;1.74;100.00;95941.69;4932309;29;20478;-54
2024/02/15 04:14:46;;;;;;;4.25;1.75;;;6.60;61.50;;;1.74;100.00;95943.50;4930161;28;20085;-57
2024/02/15 04:17:15;;;;;;;4.55;1.83;;;6.60;61.60;;;1.71;100.00;95949.16;4931943;29;20022;-53
2024/02/15 04:19:42;;;;;;;2.20;1.40;;;6.60;61.60;;;1.68;100.00;95941.66;4930600;29;20438;-55
2024/02/15 04:22:08;;;;;;;1.73;1.30;;;6.50;61.50;;;1.65;100.00;95942.88;4930793;29;20031;-54
2024/02/15 04:24:39;;;;;;;2.03;1.20;;;6.50;61.60;;;1.60;100.00;95940.06;4931180;29;20103;-52
2024/02/15 04:27:12;;;;;;;1.92;1.45;;;6.50;61.50;;;1.55;100.00;95943.25;4930507;29;20046;-53
2024/02/15 04:29:41;;;;;;;1.77;1.35;;;6.40;61.60;;;1.49;100.00;95938.00;4931719;29;20050;-52
2024/02/15 04:32:11;;;;;;;2.28;1.65;;;6.40;61.60;;;1.47;100.00;95934.75;4932568;29;20545;-54
2024/02/15 04:34:38;;;;;;;2.88;1.77;;;6.40;61.60;;;1.47;100.00;95937.38;4935364;28;20405;-53
2024/02/15 04:37:08;;;;;;;4.22;1.63;;;6.40;61.70;;;1.38;100.00;95923.66;4934944;29;20028;-52
2024/02/15 04:39:38;;;;;;;2.65;1.67;;;6.30;61.70;;;1.38;100.00;95929.72;4934292;29;20046;-56
2024/02/15 04:42:06;;;;;;;2.80;2.00;;;6.30;61.70;;;1.35;100.00;95935.34;4934946;28;20038;-58
2024/02/15 04:44:35;;;;;;;2.65;1.60;;;6.30;61.80;;;1.30;100.00;95929.88;4934322;28;20470;-54
2024/02/15 04:47:05;;;;;;;3.58;1.70;;;6.20;61.80;;;1.25;100.00;95926.22;4933423;29;20105;-55
2024/02/15 04:49:32;;;;;;;3.30;1.73;;;6.20;61.80;;;1.26;100.00;95923.41;4934894;28;20023;-57
2024/02/15 04:51:58;;;;;;;3.28;1.80;;;6.10;61.80;;;1.26;100.00;95925.22;4934290;29;20501;-53
2024/02/15 04:54:26;;;;;;;2.20;1.80;;;6.10;61.90;;;1.23;100.00;95923.00;4934961;29;20033;-54
2024/02/15 04:56:54;;;;;;;5.38;1.90;;;6.10;62.00;;;1.17;100.00;95921.16;4932601;28;20402;-55
2024/02/15 04:59:21;;;;;;;3.70;1.80;;;6.10;62.10;;;1.21;100.00;95920.56;4934961;28;20024;-55
2024/02/15 05:01:49;;;;;;;2.40;1.70;;;6.10;62.20;;;1.18;100.00;95917.53;4934381;29;20506;-54
2024/02/15 05:04:15;;;;;;;2.70;1.55;;;6.10;62.30;;;1.15;100.00;95927.41;4927790;29;20027;-55
2024/02/15 05:06:41;;;;;;;2.58;1.70;;;6.00;62.30;;;1.19;100.00;95925.19;4933156;29;20063;-57
2024/02/15 05:09:09;;;;;;;4.00;1.70;;;6.00;62.40;;;1.26;100.00;95925.22;4933590;29;20150;-55
2024/02/15 05:11:46;;;;;;;3.28;1.70;;;6.10;62.50;;;1.20;100.00;95926.03;4934608;29;20556;-53
2024/02/15 05:14:18;;;;;;;4.45;1.98;;;6.00;62.50;;;1.21;100.00;95925.81;4932906;29;20463;-56
2024/02/15 05:16:47;;;;;;;;;;;6.00;62.60;;;1.23;100.00;95917.75;4935556;28;20117;-55
2024/02/15 05:19:17;;;;;;;3.75;1.75;;;6.00;62.40;;;1.23;100.00;95926.44;4951582;28;19910;-53
2024/02/15 05:21:47;;;;;;;3.97;1.40;;;6.00;62.50;;;1.25;100.00;95926.22;4934469;28;20015;-56
2024/02/15 05:24:15;;;;;;;3.70;1.77;;;6.00;62.60;;;1.24;100.00;95921.97;4933955;29;20034;-54
2024/02/15 05:26:48;;;;;;;2.35;1.60;;;6.00;62.60;;;1.23;100.00;95920.38;4932157;28;20394;-54
2024/02/15 05:29:14;;;;;;;;;;;6.00;62.60;;;1.23;100.00;95918.56;4935407;28;20019;-54
2024/02/15 05:31:40;;;;;;;3.95;2.00;;;6.10;62.50;;;1.23;100.00;95917.75;4934566;29;20315;-52
2024/02/15 05:34:13;;;;;;;2.25;1.48;;;6.00;62.60;;;1.16;100.00;95920.34;4932181;29;20101;-51
2024/02/15 05:36:40;;;;;;;2.60;1.80;;;6.00;62.50;;;1.18;100.00;95922.78;4934099;28;20027;-51
2024/02/15 05:39:07;;;;;;;3.35;1.92;;;6.00;62.60;;;1.17;100.00;95919.34;4933078;29;20117;-51
2024/02/15 05:41:34;;;;;;;3.20;1.67;;;6.00;62.50;;;1.09;100.00;95912.44;4932714;28;20030;-53
2024/02/15 05:44:00;;;;;;;3.10;1.73;;;5.90;62.50;;;1.08;100.00;95920.53;4932438;29;20050;-51
2024/02/15 05:46:28;;;;;;;3.72;2.00;;;6.00;62.60;;;1.07;100.00;95911.03;4931889;29;20023;-57
2024/02/15 05:48:54;;;;;;;2.53;1.70;;;5.90;62.60;;;0.99;100.00;95911.19;4932668;29;20482;-56
2024/02/15 05:51:22;;;;;;;2.45;1.70;;;5.90;62.60;;;0.98;100.00;95912.22;4933182;29;20027;-52
2024/02/15 05:53:49;;;;;;;3.22;1.73;;;5.90;62.70;;;1.00;100.00;95904.94;4932075;29;20033;-53
2024/02/15 05:56:16;;;;;;;3.65;1.80;;;5.90;62.80;;;1.01;100.00;95899.50;4933567;29;20561;-57
2024/02/15 05:58:42;;;;;;;5.78;1.90;;;5.90;62.80;;;1.03;100.00;95897.47;4932583;29;20035;-55
2024/02/15 06:01:11;;;;;;;2.63;1.60;;;5.90;62.90;;;0.93;100.00;95905.72;4933777;28;20113;-53
2024/02/15 06:03:40;;;;;;;2.70;1.80;;;5.90;63.00;;;0.98;100.00;95899.91;4931795;29;20030;-52
2024/02/15 06:06:06;;;;;;;2.42;1.58;;;5.80;62.90;;;1.01;100.00;95903.97;4933235;28;20024;-56
2024/02/15 06:08:37;;;;;;;2.67;1.95;;;5.80;63.00;;;1.03;100.00;95904.53;4933182;29;20035;-54
2024/02/15 06:11:09;;;;;;;3.90;1.38;;;5.80;63.20;;;1.02;100.00;95906.38;4932118;28;20474;-58
2024/02/15 06:13:35;;;;;;;4.32;1.70;;;5.90;63.20;;;1.05;100.00;95899.94;4932991;28;20031;-53
2024/02/15 06:16:01;;;;;;;2.65;1.60;;;5.90;63.20;;;1.04;100.00;95900.94;4932197;28;20082;-55
2024/02/15 06:18:32;;;;;;;3.10;1.48;;;5.90;63.20;;;1.04;100.00;95901.75;4933412;28;20085;-57
2024/02/15 06:21:00;;;;;;;7.32;1.48;;;5.90;63.20;;;1.05;100.00;95892.84;4931993;29;20045;-57
2024/02/15 06:23:27;;;;;;;6.35;1.63;;;5.90;63.60;;;1.05;100.00;95884.19;4933051;29;20118;-52
2024/02/15 06:25:57;;;;;;;2.92;1.42;;;5.90;63.20;;;1.05;100.00;95881.56;4933371;29;20051;-57
2024/02/15 06:39:44;;;;;;;2.45;1.15;;;5.90;63.50;;;1.10;100.00;95897.53;4930172;29;20109;-53
2024/02/15 06:42:15;;;;;;;4.80;1.17;;;5.90;63.40;;;1.14;100.00;95896.13;4932606;29;20054;-53
2024/02/15 06:44:43;;;;;;;1.67;1.23;;;6.00;63.50;;;1.16;100.00;95902.00;4931137;28;20394;-55
2024/02/15 06:47:10;;;;;;;6.70;1.80;;;6.10;63.50;;;1.23;100.00;95908.06;4931730;29;20038;-54
2024/02/15 06:49:39;;;;;;;9.13;1.70;;;6.10;63.50;;;1.26;100.00;95910.28;4932591;29;20023;-57
2024/02/15 06:52:11;;;;;;;2.63;1.23;;;6.10;63.40;;;1.20;100.00;95910.28;4934057;28;20117;-52
2024/02/15 06:54:39;;;;;;;4.30;1.40;;;6.20;63.30;;;1.25;100.00;95915.72;4932055;29;20027;-57
2024/02/15 06:57:06;;;;;;;2.28;1.45;;;6.30;63.30;;;1.28;100.00;95915.31;4931552;28;20026;-53
2024/02/15 06:59:39;;;;;;;4.22;1.85;;;6.30;63.20;;;1.31;100.00;95915.72;4932484;29;20117;-55
2024/02/15 07:02:05;;;;;;;3.05;1.60;;;6.30;63.20;;;1.37;100.00;95911.50;4931509;29;20494;-58
2024/02/15 07:04:32;;;;;;;2.90;1.38;;;6.40;63.20;;;1.46;100.00;95914.78;4931066;29;20059;-53
2024/02/15 07:06:59;;;;;;;3.25;1.20;;;6.50;63.40;;;1.60;100.00;95913.78;4924701;28;20175;-55
2024/02/15 07:09:26;;;;;;;2.20;1.58;;;6.50;63.40;;;1.72;100.00;95911.38;4931982;28;20023;-53
2024/02/15 07:11:52;;;;;;;2.90;1.25;;;6.60;63.40;;;1.76;100.00;95908.16;4932930;29;20038;-52
2024/02/15 07:14:19;;;;;;;2.95;1.50;;;6.70;63.50;;;1.85;100.00;95911.41;4929026;29;20101;-53
2024/02/15 07:16:50;;;;;;;2.67;1.30;;;6.80;63.40;;;1.94;100.00;95906.72;4933546;28;20062;-52
2024/02/15 07:19:18;;;;;;;3.22;1.38;;;6.90;63.50;;;2.02;100.00;95902.09;4932312;29;20026;-54
2024/02/15 07:21:45;;;;;;;2.38;1.30;;;7.00;63.30;;;2.12;100.00;95909.56;4931145;29;20058;-54
2024/02/15 07:24:11;;;;;;;3.08;1.45;;;7.10;63.30;;;2.24;100.00;95907.94;4932131;29;20022;-56
2024/02/15 07:26:37;;;;;;;4.60;1.58;;;7.20;63.30;;;2.38;100.00;95895.56;4931833;28;20023;-56
2024/02/15 07:29:07;;;;;;;3.42;1.60;;;7.40;63.30;;;2.53;100.00;95906.66;4931700;29;20031;-55
2024/02/15 07:31:34;;;;;;;4.30;1.63;;;7.50;63.30;;;2.68;100.00;95906.41;4929715;29;20026;-53
2024/02/15 07:34:01;;;;;;;2.17;1.45;;;7.60;63.30;;;2.84;100.00;95907.78;4934390;28;20039;-58
2024/02/15 07:36:27;;;;;;;4.03;1.60;;;7.80;63.40;;;3.04;100.00;95902.47;4932783;28;20666;-55
2024/02/15 07:38:57;;;;;;;5.60;1.58;;;8.00;63.40;;;3.26;100.00;95905.59;4930701;29;20041;-57
2024/02/15 07:41:24;;;;;;;3.80;1.80;;;8.20;63.30;;;3.45;100.00;95902.06;4930388;29;20546;-59
2024/02/15 07:43:52;;;;;;;2.88;1.77;;;8.40;63.20;;;3.61;100.00;95898.09;4932536;29;20401;-58
2024/02/15 07:46:18;;;;;;;6.65;1.75;;;8.60;63.10;;;3.75;100.00;95890.09;4930816;29;20019;-58
2024/02/15 07:48:47;;;;;;;4.13;2.53;;;8.80;62.90;;;3.99;100.00;95891.94;4932689;29;20086;-56
2024/02/15 07:51:16;;;;;;;4.68;2.05;;;9.10;62.80;;;4.30;100.00;95891.06;4931828;29;20030;-57
2024/02/15 07:53:43;;;;;;;1.95;1.40;;;9.40;62.70;;;4.61;100.00;95887.50;4947716;28;20027;-55
2024/02/15 07:56:15;;;;;;;4.35;1.30;;;9.70;62.50;;;4.92;100.00;95882.28;4931821;29;20031;-55
2024/02/15 07:58:51;;;;;;;2.65;1.27;;;10.10;62.40;;;5.22;100.00;95882.31;4931089;29;20117;-56
2024/02/15 08:01:20;;;;;;;2.60;1.33;;;10.40;62.10;;;5.52;100.00;95883.13;4932173;29;20058;-58
2024/02/15 08:03:46;;;;;;;3.05;1.25;;;10.70;61.90;;;5.76;100.00;95876.06;4931522;28;20138;-56
2024/02/15 08:06:17;;;;;;;2.92;1.33;;;11.00;61.60;;;5.97;99.85;95877.41;4932724;29;20052;-57
2024/02/15 08:08:47;;;;;;;3.80;1.58;;;11.20;61.40;;;6.24;97.08;95880.44;4933547;29;20866;-57
2024/02/15 08:11:15;;;;;;;3.33;1.90;;;11.40;61.00;;;6.53;95.20;95863.84;4935989;29;20038;-56
2024/02/15 08:13:53;;;;;;;2.42;1.77;;;11.70;60.70;;;6.79;94.93;95859.88;4935000;29;20027;-58
2024/02/15 08:16:22;;;;;;;2.20;1.55;;;12.00;60.30;;;6.98;94.59;95858.69;4940227;28;20525;-58
2024/02/15 08:18:52;;;;;;;2.45;1.77;;;12.20;60.00;;;7.21;93.08;95855.19;4936889;28;20077;-53
2024/02/15 08:21:24;;;;;;;3.13;1.70;;;12.40;60.40;;;7.33;89.16;95845.34;4935521;29;20034;-55
2024/02/15 08:23:50;;;;;;;2.95;1.80;;;12.70;59.40;;;7.52;87.79;95848.59;4935368;29;20019;-56
2024/02/15 08:26:16;;;;;;;1.83;1.50;;;12.90;59.00;;;7.69;86.04;95840.66;4936920;28;20433;-57
2024/02/15 08:28:42;;;;;;;1.77;1.20;;;13.10;58.60;;;7.78;83.60;95830.47;4936375;29;20042;-57
2024/02/15 08:31:09;;;;;;;2.63;1.67;;;13.40;58.10;;;7.91;84.21;95832.78;4937178;29;20051;-57
2024/02/15 08:33:36;;;;;;;2.50;1.55;;;13.50;57.80;;;8.04;83.08;95824.50;4936048;28;20046;-56
2024/02/15 08:36:03;;;;;;;2.25;1.50;;;13.70;57.40;;;8.28;81.10;95829.63;4974927;23;20070;-53
2024/02/15 08:38:29;;;;;;;3.85;1.58;;;13.90;57.10;;;8.49;80.49;95826.25;4950157;28;20058;-54
2024/02/15 08:40:55;;;;;;;3.80;1.52;;;14.10;56.80;;;8.72;80.95;95825.22;4951347;28;20515;-52
2024/02/15 08:43:21;;;;;;;1.70;1.50;;;14.30;57.20;;;8.92;81.93;95816.69;4951366;28;20375;-50
2024/02/15 08:45:48;;;;;;;2.47;1.50;;;14.50;56.30;;;9.16;80.45;95819.06;4951562;28;20163;-53
2024/02/15 08:48:13;;;;;;;2.30;1.70;;;14.70;56.10;;;9.36;77.37;95823.78;4951111;28;20035;-52
2024/02/15 08:50:41;;;;;;;1.80;1.40;;;15.00;55.70;;;9.57;75.75;95806.19;4948805;28;20413;-50
2024/02/15 08:53:07;;;;;;;1.95;1.30;;;15.30;55.30;;;9.77;74.05;95800.22;4951793;28;20085;-55
2024/02/15 08:55:35;;;;;;;2.38;1.65;;;15.40;54.80;;;9.92;70.92;95795.03;4953560;28;20027;-51
2024/02/15 08:58:02;;;;;;;3.45;1.88;;;15.70;54.30;;;10.21;72.72;95798.16;4944997;28;20029;-50
2024/02/15 09:00:29;;;;;;;2.17;1.83;;;16.00;54.00;;;10.52;71.59;95788.50;4948845;28;20038;-52
2024/02/15 09:02:56;;;;;;;2.45;1.75;;;16.30;53.60;;;10.83;69.87;95784.13;4952962;28;20029;-49
2024/02/15 09:05:22;;;;;;;3.30;1.60;;;16.70;53.20;;;11.16;68.98;95779.44;4947215;28;20057;-51
2024/02/15 09:07:50;;;;;;;3.38;1.48;;;17.00;52.70;;;11.41;64.19;95781.38;4953397;28;20074;-52
2024/02/15 09:10:19;;;;;;;2.65;1.60;;;17.30;52.10;;;11.62;63.84;95774.16;4946573;28;20023;-49
2024/02/15 09:12:48;;;;;;;1.77;1.63;;;17.60;51.60;;;11.84;62.53;95784.56;4952315;28;20042;-49
2024/02/15 09:15:16;;;;;;;4.55;1.23;;;17.80;51.60;;;12.01;62.28;95790.47;4951435;28;20489;-49
2024/02/15 09:17:45;;;;;;;4.32;3.13;;;18.10;50.60;;;11.92;63.83;95788.63;4950849;28;20034;-49
2024/02/15 09:20:18;;;;;;;5.07;2.53;;;18.40;50.20;;;11.74;63.64;95781.91;4949602;28;20081;-50
2024/02/15 09:22:54;;;;;;;3.10;2.25;;;18.60;49.50;;;11.83;63.47;95782.97;4947647;28;20122;-52
2024/02/15 09:25:24;;;;;;;2.92;2.13;;;18.80;48.90;;;12.09;62.38;95783.00;4944344;28;20029;-51
2024/02/15 09:27:53;;;;;;;2.95;2.22;;;19.00;48.60;;;12.13;59.58;95784.88;4950515;28;20113;-53
2024/02/15 09:30:19;;;;;;;5.35;2.70;;;19.20;48.00;;;11.89;59.87;95768.59;4947933;28;20556;-53
2024/02/15 09:32:46;;;;;;;2.97;2.10;;;19.40;47.50;;;11.92;57.72;95760.06;4950121;28;20050;-54
2024/02/15 09:35:13;;;;;;;5.85;2.60;;;19.60;46.90;;;12.21;58.50;95762.94;4966187;28;20045;-49
2024/02/15 09:37:49;;;;;;;5.63;2.72;;;19.70;46.50;;;12.44;58.29;95752.75;4939899;28;20088;-53
2024/02/15 09:40:18;;;;;;;4.93;2.35;;;19.70;46.20;;;12.66;58.93;95749.72;4947344;28;20029;-50
2024/02/15 09:42:46;;;;;;;3.90;2.47;;;19.80;46.20;;;12.85;57.69;95748.06;4950427;28;20034;-51
2024/02/15 09:45:15;;;;;;;2.97;2.30;;;19.80;46.00;;;13.04;56.92;95755.47;4944890;28;20382;-52
2024/02/15 09:47:43;;;;;;;3.15;2.42;;;20.00;45.70;;;13.30;56.60;95759.59;4949592;28;20150;-52
2024/02/15 09:50:13;;;;;;;4.13;2.63;;;20.10;45.60;;;13.43;56.20;95756.31;4942686;28;20030;-50
2024/02/15 09:52:45;;;;;;;3.97;2.40;;;20.20;45.10;;;13.67;54.83;95752.16;4947028;28;20043;-51
2024/02/15 09:55:13;;;;;;;6.28;2.40;;;20.30;44.80;;;13.63;54.80;95744.69;4944699;28;20033;-49
2024/02/15 09:57:43;;;;;;;3.65;2.22;;;20.50;44.70;;;13.74;54.75;95749.94;4943895;28;20065;-51
2024/02/15 10:00:13;;;;;;;4.25;2.65;;;20.50;44.30;;;13.91;55.01;95747.63;4950074;28;20061;-50
2024/02/15 10:02:45;;;;;;;3.92;2.47;;;20.70;44.20;;;14.07;54.14;95753.66;4944123;28;20036;-54
2024/02/15 10:05:12;;;;;;;5.00;2.70;;;21.00;43.80;;;14.08;54.28;95763.31;4944248;28;20050;-49
2024/02/15 10:07:44;;;;;;;4.90;2.85;;;21.30;43.50;;;14.35;54.04;95752.03;4941628;28;20031;-49
2024/02/15 10:10:25;;;;;;;9.77;4.50;;;21.60;42.90;;;14.64;53.01;95748.56;4950890;28;20117;-51
2024/02/15 10:12:54;;;;;;;5.50;3.40;;;21.90;42.10;;;14.97;51.27;95750.28;4944934;28;20058;-49
2024/02/15 10:15:38;;;;;;;4.85;3.17;;;22.30;42.00;;;15.34;51.26;95759.44;4947335;28;20022;-52
2024/02/15 10:18:11;;;;;;;5.30;3.40;;;22.60;41.40;;;15.38;50.17;95754.28;4950180;28;20485;-50
2024/02/15 10:20:44;;;;;;;6.15;4.55;;;23.00;41.00;;;15.32;51.14;95755.47;4942450;28;20118;-51
2024/02/15 10:23:17;;;;;;;;;;;23.30;40.60;;;15.55;51.72;95754.59;4951286;28;20042;-50
2024/02/15 10:25:44;;;;;;;;;;;23.30;41.50;;;15.70;50.85;95756.28;4940458;28;20428;-51
2024/02/15 10:28:15;;;;;;;5.53;4.20;;;23.40;41.80;;;15.95;50.80;95750.50;4949352;28;19957;-49
2024/02/15 10:30:44;;;;;;;5.97;3.67;;;23.50;40.80;;;16.05;50.94;95751.41;4947213;28;20182;-50
2024/02/15 10:33:29;;;;;;;4.22;3.45;;;23.50;41.00;;;16.27;50.31;95748.09;4946048;28;20022;-51
2024/02/15 10:36:16;;;;;;;6.40;4.05;;;23.60;40.00;;;16.54;49.45;95744.59;4948380;28;20509;-51
2024/02/15 10:38:42;;;;;;;5.85;4.18;;;23.80;39.60;;;16.76;48.75;95749.31;4941394;28;20027;-53
2024/02/15 10:41:10;;;;;;;5.07;3.20;;;24.10;39.60;;;16.72;48.45;95738.34;4943253;28;20033;-51